Domov               UVHVVR             MKGP            O straneh              
ZDRAVSTVENO VARSTVO RASTLIN
  MREŽA AGROMET. POSTAJ
 ► PROGNOSTIČNA OBVESTILA
AGROMETEOROLOŠKI PODATKI -
ARSO
OBVLADOVANJE TVEGANJ ZARADI
NEUGODNIH VREMENSKIH RAZMER
  ► NARAVNE NESREČE
  ► SUŠA/MOČA
  ► NAMAKANJE
  ► ŽLED (gozdarstvo)
KARTOGRAFSKI PRIKAZI
SPLETNE POVEZAVE
PROJEKTI IN PUBLIKACIJE

AGROMETEOROLOŠKA MREŽA: VREMENSKE POSTAJE IN FENOLOŠKA OPAZOVANJA

Pregled podatkov za lokacijo Drašiči, meteorološka postaja 38741

Pregled senzorjev na lokaciji

ID Ime Zadnja
vrednost
Datum
zadnje
spremembe
Tip
senzorja
1867 Omočenost lista (U) 0 U 26.3.2019 17:30 A730WET
1868 Padavine (mm) 0 mm 26.3.2019 17:30 Rain-O-Matic
1866 Relativna vlaga 2 m (% RH) 33,46 % RH 26.3.2019 17:30 50YA
1865 Temperatura 2 m (°C) 10,33 °C 26.3.2019 17:29 50YA

Pregled podatkov zadnjih 24 ur

Zap.
št.
Datum in čas Drašiči
Omočenost
lista
Padavine Relativna
vlaga
2
m
Temperatura
2
m
1 26.3.2019 17:30
2 26.3.2019 17:00
3 26.3.2019 16:30 0 0 33,5 10,3
4 26.3.2019 16:00 0 0 32,1 10,2
5 26.3.2019 15:30 0 0 33,2 10,2
6 26.3.2019 15:00 0 0 35,5 10,2
7 26.3.2019 14:30 0 0 35 10,2
8 26.3.2019 14:00 0 0 38 10
9 26.3.2019 13:30 0 0 40,4 9,4
10 26.3.2019 13:00 0 0 44,4 9,2
11 26.3.2019 12:30 0 0 46,9 8,6
12 26.3.2019 12:00 0 0 46,9 8,6
13 26.3.2019 11:30 0 0 46,4 8,5
14 26.3.2019 11:00 0 0 47 8,1
15 26.3.2019 10:30 0 0 51 7,6
16 26.3.2019 10:00 0 0 51,6 8,2
17 26.3.2019 09:30 0 0 56,2 7,8
18 26.3.2019 09:00 0 0 70,4 6,6
19 26.3.2019 08:30 0 0 96,2 4,7
20 26.3.2019 08:00 0 0 99,5 3,4
21 26.3.2019 07:30 0 0 99,9 2,8
22 26.3.2019 07:00 0 0 99,9 2,1
23 26.3.2019 06:30 0 0 99,4 1,9
24 26.3.2019 06:00 0 0 98,7 1,9
25 26.3.2019 05:30 0 0 98 2
26 26.3.2019 05:00 0 0 97,3 2,1
27 26.3.2019 04:30 0 0 96,6 2,1
28 26.3.2019 04:00 0 0 95,3 2,1
29 26.3.2019 03:30 0 0 94,2 2,1
30 26.3.2019 03:00 0 0 93,5 2,2
31 26.3.2019 02:30 0 0 92,4 2,4
32 26.3.2019 02:00 0 0 90,5 2,6
33 26.3.2019 01:30 0 0 89 2,6
34 26.3.2019 01:00 0 0,2 89,9 2,5
35 26.3.2019 00:30 0 0,2 88,8 2,5
36 26.3.2019 00:00 0 0,2 89 2,5
37 25.3.2019 23:30 0 0,2 88,1 2,5
38 25.3.2019 23:00 0 0,4 88,5 2,7
39 25.3.2019 22:30 0 0,8 87,4 3
40 25.3.2019 22:00 0 0,2 87,2 3,4
41 25.3.2019 21:30 0 0,6 85,6 3,4
42 25.3.2019 21:00 0 1 84,6 3,6
43 25.3.2019 20:30 0 1,8 84,8 3,9
44 25.3.2019 20:00 0 2,6 86,7 4,1
45 25.3.2019 19:30 0 2 80,1 5,3
46 25.3.2019 19:00 0 2 76,8 8,1
47 25.3.2019 18:30 0 0,4 61 11,7
48 25.3.2019 18:00 0 0 49,1 13,6
© 2011 Ministrstvo za kmetijstvo, gozdarstvo in prehrano. Vse pravice pridržane.